sensor_id;sensor_type;location;lat;lon;timestamp;pressure;altitude;pressure_sealevel;temperature;humidity
13593;BME280;6867;50.998;4.250;2023-03-23T00:00:27;99938.00;;;15.44;68.60
13593;BME280;6867;50.998;4.250;2023-03-23T00:02:55;99939.59;;;15.40;68.57
13593;BME280;6867;50.998;4.250;2023-03-23T00:05:21;99948.69;;;15.29;68.83
13593;BME280;6867;50.998;4.250;2023-03-23T00:07:49;99948.84;;;15.50;68.88
13593;BME280;6867;50.998;4.250;2023-03-23T00:10:17;99937.00;;;15.56;68.75
13593;BME280;6867;50.998;4.250;2023-03-23T00:12:44;99943.06;;;15.68;68.57
13593;BME280;6867;50.998;4.250;2023-03-23T00:15:15;99922.41;;;15.62;68.50
13593;BME280;6867;50.998;4.250;2023-03-23T00:17:42;99916.34;;;15.44;68.97
13593;BME280;6867;50.998;4.250;2023-03-23T00:20:10;99917.25;;;15.18;69.36
13593;BME280;6867;50.998;4.250;2023-03-23T00:22:37;99918.53;;;15.48;69.27
13593;BME280;6867;50.998;4.250;2023-03-23T00:25:06;99931.28;;;15.52;69.63
13593;BME280;6867;50.998;4.250;2023-03-23T00:27:33;99934.19;;;15.45;69.23
13593;BME280;6867;50.998;4.250;2023-03-23T00:30:00;99952.94;;;15.52;69.19
13593;BME280;6867;50.998;4.250;2023-03-23T00:32:27;99955.41;;;15.59;68.75
13593;BME280;6867;50.998;4.250;2023-03-23T00:34:54;99951.94;;;15.63;68.50
13593;BME280;6867;50.998;4.250;2023-03-23T00:37:21;99973.81;;;15.57;68.66
13593;BME280;6867;50.998;4.250;2023-03-23T00:39:48;99951.72;;;15.70;68.19
13593;BME280;6867;50.998;4.250;2023-03-23T00:42:18;99952.13;;;15.52;68.84
13593;BME280;6867;50.998;4.250;2023-03-23T00:44:45;99920.38;;;15.79;68.19
13593;BME280;6867;50.998;4.250;2023-03-23T00:47:12;99924.38;;;15.72;67.93
13593;BME280;6867;50.998;4.250;2023-03-23T00:49:39;99940.47;;;15.88;67.27
13593;BME280;6867;50.998;4.250;2023-03-23T00:52:07;99929.84;;;15.77;67.54
13593;BME280;6867;50.998;4.250;2023-03-23T00:54:34;99941.28;;;15.52;68.25
13593;BME280;6867;50.998;4.250;2023-03-23T00:57:03;99937.56;;;15.63;67.88
13593;BME280;6867;50.998;4.250;2023-03-23T00:59:31;99940.00;;;15.59;67.77
13593;BME280;6867;50.998;4.250;2023-03-23T01:01:58;99944.16;;;15.72;67.63
13593;BME280;6867;50.998;4.250;2023-03-23T01:04:25;99930.47;;;15.52;67.76
13593;BME280;6867;50.998;4.250;2023-03-23T01:06:53;99928.50;;;15.42;67.62
13593;BME280;6867;50.998;4.250;2023-03-23T01:09:21;99925.09;;;15.62;67.56
13593;BME280;6867;50.998;4.250;2023-03-23T01:11:50;99939.94;;;15.54;67.69
13593;BME280;6867;50.998;4.250;2023-03-23T01:14:19;99937.53;;;15.58;67.37
13593;BME280;6867;50.998;4.250;2023-03-23T01:16:47;99940.75;;;15.55;67.87
13593;BME280;6867;50.998;4.250;2023-03-23T01:19:14;99934.38;;;15.66;67.46
13593;BME280;6867;50.998;4.250;2023-03-23T01:21:41;99937.66;;;15.73;67.67
13593;BME280;6867;50.998;4.250;2023-03-23T01:24:08;99926.72;;;15.63;67.44
13593;BME280;6867;50.998;4.250;2023-03-23T01:26:35;99942.44;;;15.61;68.18
13593;BME280;6867;50.998;4.250;2023-03-23T01:29:02;99933.88;;;15.74;67.73
13593;BME280;6867;50.998;4.250;2023-03-23T01:31:29;99929.38;;;15.53;68.13
13593;BME280;6867;50.998;4.250;2023-03-23T01:33:57;99918.19;;;15.76;67.94
13593;BME280;6867;50.998;4.250;2023-03-23T01:36:26;99924.66;;;15.70;67.93
13593;BME280;6867;50.998;4.250;2023-03-23T01:38:54;99914.38;;;15.72;67.94
13593;BME280;6867;50.998;4.250;2023-03-23T01:41:25;99912.88;;;15.54;68.36
13593;BME280;6867;50.998;4.250;2023-03-23T01:43:57;99921.31;;;15.63;68.40
13593;BME280;6867;50.998;4.250;2023-03-23T01:46:25;99909.38;;;15.59;68.27
13593;BME280;6867;50.998;4.250;2023-03-23T01:48:53;99903.78;;;15.65;68.21
13593;BME280;6867;50.998;4.250;2023-03-23T01:51:22;99893.84;;;15.76;67.59
13593;BME280;6867;50.998;4.250;2023-03-23T01:53:54;99882.94;;;15.71;67.54
13593;BME280;6867;50.998;4.250;2023-03-23T01:56:24;99904.38;;;15.78;67.52
13593;BME280;6867;50.998;4.250;2023-03-23T01:58:52;99908.13;;;15.72;67.42
13593;BME280;6867;50.998;4.250;2023-03-23T02:01:20;99907.69;;;15.90;66.94
13593;BME280;6867;50.998;4.250;2023-03-23T02:03:52;99907.78;;;15.63;67.58
13593;BME280;6867;50.998;4.250;2023-03-23T02:06:19;99894.22;;;15.58;67.48
13593;BME280;6867;50.998;4.250;2023-03-23T02:08:49;99914.91;;;15.69;67.47
13593;BME280;6867;50.998;4.250;2023-03-23T02:11:18;99912.50;;;15.78;67.27
13593;BME280;6867;50.998;4.250;2023-03-23T02:13:46;99903.78;;;15.65;66.90
13593;BME280;6867;50.998;4.250;2023-03-23T02:16:20;99901.38;;;15.69;66.85
13593;BME280;6867;50.998;4.250;2023-03-23T02:18:58;99913.28;;;15.68;67.11
13593;BME280;6867;50.998;4.250;2023-03-23T02:25:07;99914.22;;;15.52;66.99
13593;BME280;6867;50.998;4.250;2023-03-23T02:28:05;99898.56;;;15.59;66.68
13593;BME280;6867;50.998;4.250;2023-03-23T02:30:51;99892.31;;;15.58;66.17
13593;BME280;6867;50.998;4.250;2023-03-23T02:33:40;99888.75;;;15.42;66.49
13593;BME280;6867;50.998;4.250;2023-03-23T02:36:14;99896.25;;;15.35;66.26
13593;BME280;6867;50.998;4.250;2023-03-23T02:38:51;99887.69;;;15.49;66.27
13593;BME280;6867;50.998;4.250;2023-03-23T02:41:21;99873.31;;;15.43;66.11
13593;BME280;6867;50.998;4.250;2023-03-23T02:43:49;99886.91;;;15.16;66.65
13593;BME280;6867;50.998;4.250;2023-03-23T02:46:17;99885.47;;;15.40;66.71
13593;BME280;6867;50.998;4.250;2023-03-23T02:48:50;99868.81;;;15.64;65.86
13593;BME280;6867;50.998;4.250;2023-03-23T02:51:21;99871.09;;;15.82;65.13
13593;BME280;6867;50.998;4.250;2023-03-23T02:53:51;99871.34;;;15.33;65.54
13593;BME280;6867;50.998;4.250;2023-03-23T02:56:23;99879.56;;;15.49;65.68
13593;BME280;6867;50.998;4.250;2023-03-23T02:58:53;99870.34;;;15.44;65.70
13593;BME280;6867;50.998;4.250;2023-03-23T03:01:46;99873.03;;;15.44;65.50
13593;BME280;6867;50.998;4.250;2023-03-23T03:04:19;99869.84;;;15.58;65.00
13593;BME280;6867;50.998;4.250;2023-03-23T03:07:01;99883.38;;;15.53;65.42
13593;BME280;6867;50.998;4.250;2023-03-23T03:09:36;99865.38;;;15.74;64.83
13593;BME280;6867;50.998;4.250;2023-03-23T03:12:09;99856.97;;;15.70;64.46
13593;BME280;6867;50.998;4.250;2023-03-23T03:14:42;99858.88;;;15.75;64.64
13593;BME280;6867;50.998;4.250;2023-03-23T03:17:18;99865.09;;;15.70;64.70
13593;BME280;6867;50.998;4.250;2023-03-23T03:19:50;99868.03;;;15.63;64.36
13593;BME280;6867;50.998;4.250;2023-03-23T03:22:19;99858.72;;;15.49;64.72
13593;BME280;6867;50.998;4.250;2023-03-23T03:24:47;99849.94;;;15.69;64.34
13593;BME280;6867;50.998;4.250;2023-03-23T03:27:18;99850.03;;;15.89;63.89
13593;BME280;6867;50.998;4.250;2023-03-23T03:29:47;99852.97;;;15.83;64.13
13593;BME280;6867;50.998;4.250;2023-03-23T03:32:19;99856.66;;;15.66;64.58
13593;BME280;6867;50.998;4.250;2023-03-23T03:34:49;99859.94;;;15.68;64.60
13593;BME280;6867;50.998;4.250;2023-03-23T03:37:18;99855.94;;;15.76;64.37
13593;BME280;6867;50.998;4.250;2023-03-23T03:39:46;99874.47;;;15.57;64.91
13593;BME280;6867;50.998;4.250;2023-03-23T03:42:12;99864.25;;;15.64;64.21
13593;BME280;6867;50.998;4.250;2023-03-23T03:44:39;99860.84;;;15.42;64.46
13593;BME280;6867;50.998;4.250;2023-03-23T03:47:06;99865.56;;;15.62;64.98
13593;BME280;6867;50.998;4.250;2023-03-23T03:49:33;99856.97;;;15.70;64.46
13593;BME280;6867;50.998;4.250;2023-03-23T03:52:02;99871.47;;;15.54;64.59
13593;BME280;6867;50.998;4.250;2023-03-23T03:54:29;99869.28;;;15.51;64.87
13593;BME280;6867;50.998;4.250;2023-03-23T03:56:55;99872.44;;;15.00;65.36
13593;BME280;6867;50.998;4.250;2023-03-23T03:59:23;99878.09;;;15.31;65.02
13593;BME280;6867;50.998;4.250;2023-03-23T04:01:51;99880.22;;;15.24;65.31
13593;BME280;6867;50.998;4.250;2023-03-23T04:04:20;99896.75;;;15.64;64.85
13593;BME280;6867;50.998;4.250;2023-03-23T04:06:47;99879.66;;;15.64;64.61
13593;BME280;6867;50.998;4.250;2023-03-23T04:09:16;99882.31;;;15.59;64.51
13593;BME280;6867;50.998;4.250;2023-03-23T04:11:42;99882.25;;;15.43;64.65
13593;BME280;6867;50.998;4.250;2023-03-23T04:14:09;99902.50;;;15.41;65.36
13593;BME280;6867;50.998;4.250;2023-03-23T04:16:36;99900.63;;;15.41;65.08
13593;BME280;6867;50.998;4.250;2023-03-23T04:19:03;99885.66;;;15.29;64.95
13593;BME280;6867;50.998;4.250;2023-03-23T04:21:30;99906.00;;;15.36;65.01
13593;BME280;6867;50.998;4.250;2023-03-23T04:23:57;99878.84;;;15.63;64.46
13593;BME280;6867;50.998;4.250;2023-03-23T04:26:27;99890.13;;;15.13;64.76
13593;BME280;6867;50.998;4.250;2023-03-23T04:28:55;99884.47;;;15.57;64.29
13593;BME280;6867;50.998;4.250;2023-03-23T04:31:24;99880.69;;;15.58;63.80
13593;BME280;6867;50.998;4.250;2023-03-23T04:33:51;99887.91;;;15.42;64.13
13593;BME280;6867;50.998;4.250;2023-03-23T04:36:18;99879.59;;;15.54;64.05
13593;BME280;6867;50.998;4.250;2023-03-23T04:38:48;99859.16;;;15.31;63.44
13593;BME280;6867;50.998;4.250;2023-03-23T04:41:16;99888.00;;;15.15;64.76
13593;BME280;6867;50.998;4.250;2023-03-23T04:43:44;99881.59;;;15.26;64.52
13593;BME280;6867;50.998;4.250;2023-03-23T04:46:10;99901.81;;;14.86;65.32
13593;BME280;6867;50.998;4.250;2023-03-23T04:48:41;99890.69;;;14.83;65.77
13593;BME280;6867;50.998;4.250;2023-03-23T04:51:07;99890.97;;;14.81;65.53
13593;BME280;6867;50.998;4.250;2023-03-23T04:53:34;99914.31;;;14.65;66.29
13593;BME280;6867;50.998;4.250;2023-03-23T04:56:01;99910.84;;;14.70;65.74
13593;BME280;6867;50.998;4.250;2023-03-23T04:58:27;99913.66;;;14.80;65.67
13593;BME280;6867;50.998;4.250;2023-03-23T05:00:56;99922.38;;;14.87;65.66
13593;BME280;6867;50.998;4.250;2023-03-23T05:03:23;99924.88;;;14.67;66.25
13593;BME280;6867;50.998;4.250;2023-03-23T05:05:50;99927.69;;;14.77;66.02
13593;BME280;6867;50.998;4.250;2023-03-23T05:08:18;99916.31;;;14.75;66.04
13593;BME280;6867;50.998;4.250;2023-03-23T05:10:56;99924.53;;;14.85;65.91
13593;BME280;6867;50.998;4.250;2023-03-23T05:13:24;99920.69;;;14.81;65.76
13593;BME280;6867;50.998;4.250;2023-03-23T05:15:51;99916.91;;;14.82;66.06
13593;BME280;6867;50.998;4.250;2023-03-23T05:18:19;99909.97;;;14.91;65.62
13593;BME280;6867;50.998;4.250;2023-03-23T05:20:46;99936.06;;;14.76;66.44
13593;BME280;6867;50.998;4.250;2023-03-23T05:23:14;99928.81;;;14.81;66.17
13593;BME280;6867;50.998;4.250;2023-03-23T05:25:41;99930.66;;;14.76;66.21
13593;BME280;6867;50.998;4.250;2023-03-23T05:28:08;99936.19;;;14.91;66.27
13593;BME280;6867;50.998;4.250;2023-03-23T05:30:36;99936.81;;;14.98;65.66
13593;BME280;6867;50.998;4.250;2023-03-23T05:33:03;99951.59;;;14.90;66.40
13593;BME280;6867;50.998;4.250;2023-03-23T05:35:33;99956.28;;;15.00;66.39
13593;BME280;6867;50.998;4.250;2023-03-23T05:37:59;99947.47;;;15.10;66.73
13593;BME280;6867;50.998;4.250;2023-03-23T05:40:27;99955.78;;;15.03;66.34
13593;BME280;6867;50.998;4.250;2023-03-23T05:42:54;99951.00;;;14.83;66.34
13593;BME280;6867;50.998;4.250;2023-03-23T05:45:24;99954.16;;;14.75;66.75
13593;BME280;6867;50.998;4.250;2023-03-23T05:47:52;99966.66;;;14.81;66.91
13593;BME280;6867;50.998;4.250;2023-03-23T05:50:19;99959.06;;;14.78;66.94
13593;BME280;6867;50.998;4.250;2023-03-23T05:52:47;99949.53;;;14.98;66.59
13593;BME280;6867;50.998;4.250;2023-03-23T05:55:13;99958.31;;;14.88;66.94
13593;BME280;6867;50.998;4.250;2023-03-23T05:57:40;99932.47;;;14.70;66.42
13593;BME280;6867;50.998;4.250;2023-03-23T06:00:08;99949.06;;;14.79;66.50
13593;BME280;6867;50.998;4.250;2023-03-23T06:02:45;99944.00;;;14.87;66.30
13593;BME280;6867;50.998;4.250;2023-03-23T06:05:12;99937.22;;;14.58;66.60
13593;BME280;6867;50.998;4.250;2023-03-23T06:07:39;99938.16;;;14.68;66.35
13593;BME280;6867;50.998;4.250;2023-03-23T06:10:08;99926.41;;;15.17;65.29
13593;BME280;6867;50.998;4.250;2023-03-23T06:12:35;99902.44;;;14.93;65.22
13593;BME280;6867;50.998;4.250;2023-03-23T06:15:03;99914.59;;;14.96;65.10
13593;BME280;6867;50.998;4.250;2023-03-23T06:17:32;99912.81;;;15.07;65.06
13593;BME280;6867;50.998;4.250;2023-03-23T06:19:58;99934.38;;;14.97;65.34
13593;BME280;6867;50.998;4.250;2023-03-23T06:22:25;99966.09;;;14.79;65.67
13593;BME280;6867;50.998;4.250;2023-03-23T06:24:53;100061.81;;;14.39;68.93
13593;BME280;6867;50.998;4.250;2023-03-23T06:27:24;100112.88;;;13.68;70.62
13593;BME280;6867;50.998;4.250;2023-03-23T06:29:51;100122.78;;;13.34;70.92
13593;BME280;6867;50.998;4.250;2023-03-23T06:32:17;100133.06;;;13.37;72.58
13593;BME280;6867;50.998;4.250;2023-03-23T06:34:44;100118.25;;;13.68;71.46
13593;BME280;6867;50.998;4.250;2023-03-23T06:37:12;100116.16;;;13.25;72.55
13593;BME280;6867;50.998;4.250;2023-03-23T06:39:41;100129.97;;;13.17;73.40
13593;BME280;6867;50.998;4.250;2023-03-23T06:42:09;100129.81;;;13.35;73.35
13593;BME280;6867;50.998;4.250;2023-03-23T06:44:38;100129.94;;;13.29;73.44
13593;BME280;6867;50.998;4.250;2023-03-23T06:47:04;100129.34;;;12.86;73.87
13593;BME280;6867;50.998;4.250;2023-03-23T06:49:32;100145.69;;;13.08;74.73
13593;BME280;6867;50.998;4.250;2023-03-23T06:51:59;100137.72;;;13.13;74.89
13593;BME280;6867;50.998;4.250;2023-03-23T06:54:27;100140.94;;;12.99;75.07
13593;BME280;6867;50.998;4.250;2023-03-23T06:56:55;100151.56;;;12.30;76.78
13593;BME280;6867;50.998;4.250;2023-03-23T06:59:21;100144.97;;;12.73;76.72
13593;BME280;6867;50.998;4.250;2023-03-23T07:01:50;100145.16;;;12.94;76.59
13593;BME280;6867;50.998;4.250;2023-03-23T07:04:17;100134.34;;;13.06;75.97
13593;BME280;6867;50.998;4.250;2023-03-23T07:06:43;100133.41;;;12.49;77.15
13593;BME280;6867;50.998;4.250;2023-03-23T07:09:10;100122.84;;;13.11;76.35
13593;BME280;6867;50.998;4.250;2023-03-23T07:11:37;100132.03;;;13.38;75.65
13593;BME280;6867;50.998;4.250;2023-03-23T07:14:04;100110.03;;;13.30;74.40
13593;BME280;6867;50.998;4.250;2023-03-23T07:16:31;100117.28;;;13.29;74.39
13593;BME280;6867;50.998;4.250;2023-03-23T07:18:59;100098.75;;;13.50;73.36
13593;BME280;6867;50.998;4.250;2023-03-23T07:21:26;100083.22;;;13.40;72.99
13593;BME280;6867;50.998;4.250;2023-03-23T07:23:53;100090.25;;;13.41;73.24
13593;BME280;6867;50.998;4.250;2023-03-23T07:26:20;100084.13;;;13.17;73.01
13593;BME280;6867;50.998;4.250;2023-03-23T07:28:46;100077.19;;;13.21;73.05
13593;BME280;6867;50.998;4.250;2023-03-23T07:31:13;100069.69;;;13.23;72.37
13593;BME280;6867;50.998;4.250;2023-03-23T07:33:40;100062.72;;;13.39;71.37
13593;BME280;6867;50.998;4.250;2023-03-23T07:36:09;100062.72;;;13.56;71.54
13593;BME280;6867;50.998;4.250;2023-03-23T07:38:36;100063.47;;;13.51;71.00
13593;BME280;6867;50.998;4.250;2023-03-23T07:41:04;100055.84;;;13.65;70.74
13593;BME280;6867;50.998;4.250;2023-03-23T07:43:31;100060.50;;;13.53;70.72
13593;BME280;6867;50.998;4.250;2023-03-23T07:45:58;100057.59;;;13.71;70.76
13593;BME280;6867;50.998;4.250;2023-03-23T07:48:25;100066.66;;;13.65;70.84
13593;BME280;6867;50.998;4.250;2023-03-23T07:50:52;100079.25;;;13.76;70.51
13593;BME280;6867;50.998;4.250;2023-03-23T07:53:20;100066.41;;;13.83;70.22
13593;BME280;6867;50.998;4.250;2023-03-23T07:55:49;100060.47;;;14.20;69.66
13593;BME280;6867;50.998;4.250;2023-03-23T07:58:16;100049.13;;;14.40;68.71
13593;BME280;6867;50.998;4.250;2023-03-23T08:00:44;100053.19;;;14.81;67.55
13593;BME280;6867;50.998;4.250;2023-03-23T08:03:11;100036.00;;;14.92;66.70
13593;BME280;6867;50.998;4.250;2023-03-23T08:05:38;100038.44;;;14.94;66.54
13593;BME280;6867;50.998;4.250;2023-03-23T08:08:07;100026.69;;;15.05;65.54
13593;BME280;6867;50.998;4.250;2023-03-23T08:10:36;100051.16;;;14.93;65.83
13593;BME280;6867;50.998;4.250;2023-03-23T08:13:03;100066.53;;;15.15;65.58
13593;BME280;6867;50.998;4.250;2023-03-23T08:15:31;100074.91;;;14.91;66.65
13593;BME280;6867;50.998;4.250;2023-03-23T08:17:59;100056.59;;;14.72;65.85
13593;BME280;6867;50.998;4.250;2023-03-23T08:20:26;100070.28;;;14.65;66.60
13593;BME280;6867;50.998;4.250;2023-03-23T08:22:54;100092.88;;;14.76;67.20
13593;BME280;6867;50.998;4.250;2023-03-23T08:25:23;100103.63;;;14.92;67.47
13593;BME280;6867;50.998;4.250;2023-03-23T08:27:52;100102.19;;;15.12;66.73
13593;BME280;6867;50.998;4.250;2023-03-23T08:30:20;100116.28;;;15.14;66.70
13593;BME280;6867;50.998;4.250;2023-03-23T08:32:48;100099.50;;;15.12;66.33
13593;BME280;6867;50.998;4.250;2023-03-23T08:35:16;100106.19;;;15.31;66.72
13593;BME280;6867;50.998;4.250;2023-03-23T08:37:44;100125.41;;;15.08;67.48
13593;BME280;6867;50.998;4.250;2023-03-23T08:40:12;100109.91;;;15.25;66.98
13593;BME280;6867;50.998;4.250;2023-03-23T08:42:41;100102.06;;;15.24;66.45
13593;BME280;6867;50.998;4.250;2023-03-23T08:45:13;100090.16;;;14.98;66.53
13593;BME280;6867;50.998;4.250;2023-03-23T08:47:40;100098.72;;;15.16;66.64
13593;BME280;6867;50.998;4.250;2023-03-23T08:50:10;100093.63;;;15.20;66.68
13593;BME280;6867;50.998;4.250;2023-03-23T08:52:37;100102.56;;;15.48;66.63
13593;BME280;6867;50.998;4.250;2023-03-23T08:55:05;100113.19;;;15.54;66.55
13593;BME280;6867;50.998;4.250;2023-03-23T08:57:34;100101.56;;;15.81;65.66
13593;BME280;6867;50.998;4.250;2023-03-23T09:00:01;100093.56;;;16.43;64.89
13593;BME280;6867;50.998;4.250;2023-03-23T09:02:40;100072.72;;;16.49;64.10
13593;BME280;6867;50.998;4.250;2023-03-23T09:05:08;100047.31;;;16.60;62.79
13593;BME280;6867;50.998;4.250;2023-03-23T09:07:35;100065.66;;;16.01;64.23
13593;BME280;6867;50.998;4.250;2023-03-23T09:10:02;100084.00;;;15.88;64.20
13593;BME280;6867;50.998;4.250;2023-03-23T09:12:29;100114.94;;;15.65;65.80
13593;BME280;6867;50.998;4.250;2023-03-23T09:14:56;100116.34;;;15.46;66.49
13593;BME280;6867;50.998;4.250;2023-03-23T09:17:22;100126.03;;;15.42;66.54
13593;BME280;6867;50.998;4.250;2023-03-23T09:19:51;100143.41;;;15.68;67.35
13593;BME280;6867;50.998;4.250;2023-03-23T09:22:17;100152.72;;;15.55;67.58
13593;BME280;6867;50.998;4.250;2023-03-23T09:24:48;100147.34;;;15.33;67.57
13593;BME280;6867;50.998;4.250;2023-03-23T09:27:17;100155.25;;;15.40;67.91
13593;BME280;6867;50.998;4.250;2023-03-23T09:29:44;100141.38;;;15.58;67.26
13593;BME280;6867;50.998;4.250;2023-03-23T09:32:14;100161.22;;;15.64;68.35
13593;BME280;6867;50.998;4.250;2023-03-23T09:34:41;100169.56;;;15.62;68.08
13593;BME280;6867;50.998;4.250;2023-03-23T09:37:09;100152.34;;;15.68;67.70
13593;BME280;6867;50.998;4.250;2023-03-23T09:39:38;100154.47;;;15.93;67.69
13593;BME280;6867;50.998;4.250;2023-03-23T09:42:19;100156.78;;;16.12;67.65
13593;BME280;6867;50.998;4.250;2023-03-23T09:45:01;100143.34;;;16.27;66.38
13593;BME280;6867;50.998;4.250;2023-03-23T09:47:36;100158.84;;;16.00;67.64
13593;BME280;6867;50.998;4.250;2023-03-23T09:50:09;100147.53;;;16.08;67.37
13593;BME280;6867;50.998;4.250;2023-03-23T09:52:43;100134.72;;;15.98;66.75
13593;BME280;6867;50.998;4.250;2023-03-23T09:55:13;100150.91;;;16.25;66.52
13593;BME280;6867;50.998;4.250;2023-03-23T09:57:45;100141.09;;;16.14;66.17
13593;BME280;6867;50.998;4.250;2023-03-23T10:00:17;100158.13;;;16.09;67.30
13593;BME280;6867;50.998;4.250;2023-03-23T10:02:52;100142.94;;;16.51;66.51
13593;BME280;6867;50.998;4.250;2023-03-23T10:05:29;100112.75;;;16.84;65.21
13593;BME280;6867;50.998;4.250;2023-03-23T10:07:59;100090.66;;;17.33;63.87
13593;BME280;6867;50.998;4.250;2023-03-23T10:10:33;100068.97;;;17.38;62.83
13593;BME280;6867;50.998;4.250;2023-03-23T10:13:06;100034.50;;;17.80;61.30
13593;BME280;6867;50.998;4.250;2023-03-23T10:15:39;100046.19;;;17.75;61.24
13593;BME280;6867;50.998;4.250;2023-03-23T10:18:13;100076.59;;;17.52;62.16
13593;BME280;6867;50.998;4.250;2023-03-23T10:20:46;100027.66;;;18.13;59.95
13593;BME280;6867;50.998;4.250;2023-03-23T10:23:39;100036.41;;;17.84;60.48
13593;BME280;6867;50.998;4.250;2023-03-23T10:26:20;100024.78;;;18.59;58.74
13593;BME280;6867;50.998;4.250;2023-03-23T10:28:50;100010.03;;;18.10;58.70
13593;BME280;6867;50.998;4.250;2023-03-23T10:31:23;100011.84;;;18.30;58.59
13593;BME280;6867;50.998;4.250;2023-03-23T10:33:53;100032.50;;;18.36;58.71
13593;BME280;6867;50.998;4.250;2023-03-23T10:36:23;100052.59;;;18.40;59.36
13593;BME280;6867;50.998;4.250;2023-03-23T10:38:57;100044.34;;;18.71;58.61
13593;BME280;6867;50.998;4.250;2023-03-23T10:41:24;100007.13;;;18.56;57.62
13593;BME280;6867;50.998;4.250;2023-03-23T10:43:51;100044.41;;;18.51;58.38
13593;BME280;6867;50.998;4.250;2023-03-23T10:46:31;100031.66;;;19.01;57.30
13593;BME280;6867;50.998;4.250;2023-03-23T10:49:02;100008.06;;;19.30;56.00
13593;BME280;6867;50.998;4.250;2023-03-23T10:51:33;100024.72;;;19.58;56.16
13593;BME280;6867;50.998;4.250;2023-03-23T10:54:04;100022.91;;;19.48;56.31
13593;BME280;6867;50.998;4.250;2023-03-23T10:56:36;99989.00;;;19.30;55.88
13593;BME280;6867;50.998;4.250;2023-03-23T10:59:12;99998.59;;;19.62;55.35
13593;BME280;6867;50.998;4.250;2023-03-23T11:01:43;100029.06;;;19.64;56.21
13593;BME280;6867;50.998;4.250;2023-03-23T11:04:12;100056.13;;;19.06;57.50
13593;BME280;6867;50.998;4.250;2023-03-23T11:06:44;100021.94;;;18.95;56.56
13593;BME280;6867;50.998;4.250;2023-03-23T11:09:14;100075.19;;;18.26;58.98
13593;BME280;6867;50.998;4.250;2023-03-23T11:11:47;100068.94;;;18.30;58.76
13593;BME280;6867;50.998;4.250;2023-03-23T11:14:17;100058.44;;;18.83;57.79
13593;BME280;6867;50.998;4.250;2023-03-23T11:16:49;100043.31;;;19.11;57.28
13593;BME280;6867;50.998;4.250;2023-03-23T11:19:22;100019.97;;;19.00;56.62
13593;BME280;6867;50.998;4.250;2023-03-23T11:21:51;100021.34;;;19.03;56.65
13593;BME280;6867;50.998;4.250;2023-03-23T11:24:22;100063.31;;;18.91;58.08
13593;BME280;6867;50.998;4.250;2023-03-23T11:26:49;100037.91;;;19.06;57.58
13593;BME280;6867;50.998;4.250;2023-03-23T11:29:18;100050.78;;;19.35;57.57
13593;BME280;6867;50.998;4.250;2023-03-23T11:31:49;100034.25;;;18.82;57.84
13593;BME280;6867;50.998;4.250;2023-03-23T11:34:19;100015.97;;;18.87;57.43
13593;BME280;6867;50.998;4.250;2023-03-23T11:36:48;100031.41;;;19.02;57.82
13593;BME280;6867;50.998;4.250;2023-03-23T11:39:25;100006.63;;;19.04;57.01
13593;BME280;6867;50.998;4.250;2023-03-23T11:41:53;99983.88;;;18.89;56.92
13593;BME280;6867;50.998;4.250;2023-03-23T11:44:21;99955.00;;;18.88;55.75
13593;BME280;6867;50.998;4.250;2023-03-23T11:46:55;100008.69;;;19.17;56.59
13593;BME280;6867;50.998;4.250;2023-03-23T11:49:32;99959.59;;;19.32;55.53
13593;BME280;6867;50.998;4.250;2023-03-23T11:52:08;99930.66;;;19.71;54.79
13593;BME280;6867;50.998;4.250;2023-03-23T11:54:42;99953.53;;;19.40;54.73
13593;BME280;6867;50.998;4.250;2023-03-23T11:57:11;99923.41;;;20.09;53.34
13593;BME280;6867;50.998;4.250;2023-03-23T11:59:39;99908.00;;;20.80;52.15
13593;BME280;6867;50.998;4.250;2023-03-23T12:02:24;99938.09;;;20.75;52.70
13593;BME280;6867;50.998;4.250;2023-03-23T12:05:00;99903.66;;;20.60;51.70
13593;BME280;6867;50.998;4.250;2023-03-23T12:07:45;99907.13;;;21.17;51.33
13593;BME280;6867;50.998;4.250;2023-03-23T12:10:24;99916.72;;;21.33;51.05
13593;BME280;6867;50.998;4.250;2023-03-23T12:13:01;99849.53;;;20.67;50.55
13593;BME280;6867;50.998;4.250;2023-03-23T12:15:34;99893.25;;;20.81;51.43
13593;BME280;6867;50.998;4.250;2023-03-23T12:18:09;99880.66;;;20.66;51.27
13593;BME280;6867;50.998;4.250;2023-03-23T12:20:50;99878.28;;;20.78;51.48
13593;BME280;6867;50.998;4.250;2023-03-23T12:23:23;99853.28;;;20.90;51.07
13593;BME280;6867;50.998;4.250;2023-03-23T12:26:09;99801.78;;;20.51;50.07
13593;BME280;6867;50.998;4.250;2023-03-23T12:31:44;99848.03;;;20.18;51.39
13593;BME280;6867;50.998;4.250;2023-03-23T12:34:18;99833.38;;;20.14;51.11
13593;BME280;6867;50.998;4.250;2023-03-23T12:36:58;99778.53;;;19.97;49.41
13593;BME280;6867;50.998;4.250;2023-03-23T12:39:48;99844.22;;;20.19;50.50
13593;BME280;6867;50.998;4.250;2023-03-23T12:42:23;99774.03;;;19.20;50.21
13593;BME280;6867;50.998;4.250;2023-03-23T12:44:58;99820.25;;;19.25;50.72
13593;BME280;6867;50.998;4.250;2023-03-23T12:47:34;99812.75;;;19.12;50.63
13593;BME280;6867;50.998;4.250;2023-03-23T12:50:07;99815.28;;;19.32;50.41
13593;BME280;6867;50.998;4.250;2023-03-23T12:52:41;99822.91;;;19.30;50.31
13593;BME280;6867;50.998;4.250;2023-03-23T12:55:17;99843.31;;;20.05;49.82
13593;BME280;6867;50.998;4.250;2023-03-23T12:57:50;99801.00;;;20.97;47.67
13593;BME280;6867;50.998;4.250;2023-03-23T13:00:23;99795.13;;;21.50;46.77
13593;BME280;6867;50.998;4.250;2023-03-23T13:02:57;99709.31;;;21.51;44.91
13593;BME280;6867;50.998;4.250;2023-03-23T13:05:35;99733.28;;;21.26;45.42
13593;BME280;6867;50.998;4.250;2023-03-23T13:08:07;99738.16;;;20.69;46.02
13593;BME280;6867;50.998;4.250;2023-03-23T13:10:39;99816.50;;;20.12;48.08
13593;BME280;6867;50.998;4.250;2023-03-23T13:13:13;99810.88;;;20.22;48.02
13593;BME280;6867;50.998;4.250;2023-03-23T13:15:47;99831.84;;;19.84;48.72
13593;BME280;6867;50.998;4.250;2023-03-23T13:18:20;99897.41;;;19.39;50.65
13593;BME280;6867;50.998;4.250;2023-03-23T13:20:59;99905.44;;;19.55;50.94
13593;BME280;6867;50.998;4.250;2023-03-23T13:23:33;99886.47;;;19.98;50.17
13593;BME280;6867;50.998;4.250;2023-03-23T13:26:03;99915.91;;;19.42;51.86
13593;BME280;6867;50.998;4.250;2023-03-23T13:28:48;99890.38;;;19.92;50.29